KBQK/BQK METAR and TAF weather

Enter ICAO airport designator
Station Type Date Time Source
KBQK METAR 2022/05/24 12:35 UTC NOAA

KBQK 241235Z AUTO 16006KT 10SM SCT010 BKN016 26/24 A3007 RMK AO2 T02590240


Station Type Date Time Source
KBQK Decoded METAR 2022/05/24 12:35 UTC NOAA

Brunswick / Glynco, GA, United States (KBQK) 31-15N 081-28W
May 24, 2022 - 08:35 AM EDT / 2022.05.24 1235 UTC
Wind: from the SSE (160 degrees) at 7 MPH (6 KT):0
Visibility: 10 mile(s):0
Sky conditions: mostly cloudy
Temperature: 78.6 F (25.9 C)
Dew Point: 75.2 F (24.0 C)
Relative Humidity: 89%
Pressure (altimeter): 30.07 in. Hg (1018 hPa)
ob: KBQK 241235Z AUTO 16006KT 10SM SCT010 BKN016 26/24 A3007 RMK AO2 T02590240
cycle: 12

Station Type Date Time Source
KBQK TAF UTC NOAA

Error!

Example: see airport list